Time;durP1;ratioP1;P1;durP2;ratioP2;P2;SDS_P1;SDS_P2;PMS_P1;PMS_P2;Temp;Humidity;BMP_temperature;BMP_pressure;BME280_temperature;BME280_humidity;BME280_pressure;Samples;Min_cycle;Max_cycle;Signal;HPM_P1;HPM_P2
2024/02/24 00:01:55;;;;;;;7.75;3.00;;;;;;;;;;4990540;28;20041;-76
2024/02/24 00:04:20;;;;;;;5.85;3.00;;;;;;;;;;4990889;28;20038;-75
2024/02/24 00:06:45;;;;;;;9.43;3.83;;;;;;;;;;4990681;28;20058;-75
2024/02/24 00:09:11;;;;;;;9.38;3.55;;;;;;;;;;4992426;28;20034;-76
2024/02/24 00:11:36;;;;;;;7.15;3.38;;;;;;;;;;4990772;28;20022;-75
2024/02/24 00:14:01;;;;;;;7.07;3.75;;;;;;;;;;4990769;28;20106;-76
2024/02/24 00:16:26;;;;;;;5.63;3.40;;;;;;;;;;4990848;28;20042;-75
2024/02/24 00:18:55;;;;;;;8.20;3.58;;;;;;;;;;4990604;28;20109;-76
2024/02/24 00:21:20;;;;;;;6.57;3.40;;;;;;;;;;4991969;28;20045;-76
2024/02/24 00:23:45;;;;;;;7.30;3.85;;;;;;;;;;4989631;28;20418;-76
2024/02/24 00:26:11;;;;;;;8.60;3.83;;;;;;;;;;4990583;28;20034;-76
2024/02/24 00:28:36;;;;;;;6.47;3.80;;;;;;;;;;4990422;28;20081;-76
2024/02/24 00:31:02;;;;;;;8.38;4.28;;;;;;;;;;4989935;28;20105;-75
2024/02/24 00:33:27;;;;;;;7.68;3.70;;;;;;;;;;4988924;28;20034;-76
2024/02/24 00:35:52;;;;;;;7.95;3.70;;;;;;;;;;4990100;28;20030;-75
2024/02/24 00:38:17;;;;;;;7.70;3.65;;;;;;;;;;4990491;28;20030;-75
2024/02/24 00:40:42;;;;;;;9.85;3.67;;;;;;;;;;4990658;28;20487;-75
2024/02/24 00:43:08;;;;;;;10.68;4.10;;;;;;;;;;4994199;28;20483;-75
2024/02/24 00:45:33;;;;;;;7.45;3.53;;;;;;;;;;4990170;28;20053;-76
2024/02/24 00:47:58;;;;;;;9.45;3.88;;;;;;;;;;4993880;28;20112;-75
2024/02/24 00:50:28;;;;;;;7.47;4.03;;;;;;;;;;4989996;28;20031;-75
2024/02/24 00:52:53;;;;;;;7.85;3.85;;;;;;;;;;4989673;28;20064;-75
2024/02/24 00:55:19;;;;;;;7.53;3.60;;;;;;;;;;4990201;28;20062;-75
2024/02/24 00:57:44;;;;;;;7.68;4.13;;;;;;;;;;4990055;28;20090;-76
2024/02/24 01:00:09;;;;;;;6.72;4.22;;;;;;;;;;4959186;28;996912;-75
2024/02/24 01:02:34;;;;;;;7.82;4.03;;;;;;;;;;4990390;28;20503;-75
2024/02/24 01:05:00;;;;;;;8.85;3.53;;;;;;;;;;4991734;28;20034;-75
2024/02/24 01:07:25;;;;;;;8.38;4.63;;;;;;;;;;4990975;28;20034;-75
2024/02/24 01:09:50;;;;;;;8.63;4.45;;;;;;;;;;4993737;28;20042;-75
2024/02/24 01:12:15;;;;;;;7.35;3.72;;;;;;;;;;4990519;28;20073;-75
2024/02/24 01:14:40;;;;;;;8.57;4.47;;;;;;;;;;4990418;28;20034;-75
2024/02/24 01:17:06;;;;;;;7.60;4.43;;;;;;;;;;4990681;28;20113;-75
2024/02/24 01:19:31;;;;;;;9.77;4.18;;;;;;;;;;4990346;28;20041;-77
2024/02/24 01:21:56;;;;;;;8.00;4.13;;;;;;;;;;4990119;28;20395;-76
2024/02/24 01:24:21;;;;;;;10.15;4.60;;;;;;;;;;4988859;28;20038;-75
2024/02/24 01:26:46;;;;;;;7.78;3.80;;;;;;;;;;4990388;28;20121;-75
2024/02/24 01:29:12;;;;;;;8.20;4.20;;;;;;;;;;4990816;28;20023;-75
2024/02/24 01:31:37;;;;;;;9.52;4.30;;;;;;;;;;4990401;28;20041;-76
2024/02/24 01:34:02;;;;;;;6.78;3.80;;;;;;;;;;4991205;28;20037;-77
2024/02/24 01:36:27;;;;;;;9.40;3.03;;;;;;;;;;4994682;28;20034;-76
2024/02/24 01:38:54;;;;;;;7.60;3.67;;;;;;;;;;4994416;28;20037;-76
2024/02/24 01:41:19;;;;;;;6.70;3.83;;;;;;;;;;4996865;28;20093;-76
2024/02/24 01:43:44;;;;;;;7.20;3.60;;;;;;;;;;4994153;28;20066;-75
2024/02/24 01:46:13;;;;;;;7.45;3.33;;;;;;;;;;4994380;28;20034;-76
2024/02/24 01:48:38;;;;;;;8.30;3.70;;;;;;;;;;4993712;28;20030;-75
2024/02/24 01:51:03;;;;;;;8.18;3.72;;;;;;;;;;4993677;28;20041;-75
2024/02/24 01:53:30;;;;;;;7.28;3.60;;;;;;;;;;4995748;28;20034;-76
2024/02/24 01:55:55;;;;;;;7.20;3.63;;;;;;;;;;4994897;28;20041;-76
2024/02/24 01:58:21;;;;;;;8.63;3.88;;;;;;;;;;4994080;28;20410;-75
2024/02/24 02:00:46;;;;;;;8.07;3.85;;;;;;;;;;4992848;28;20038;-75
2024/02/24 02:03:12;;;;;;;8.50;3.70;;;;;;;;;;4994154;28;20042;-75
2024/02/24 02:05:37;;;;;;;11.95;4.82;;;;;;;;;;4993756;28;20042;-76
2024/02/24 02:08:03;;;;;;;7.60;4.78;;;;;;;;;;4993945;28;20041;-76
2024/02/24 02:10:44;;;;;;;8.00;4.15;;;;;;;;;;4993813;28;20037;-75
2024/02/24 02:13:09;;;;;;;7.53;4.25;;;;;;;;;;4991273;28;20030;-76
2024/02/24 02:15:36;;;;;;;8.82;3.72;;;;;;;;;;4993555;28;20049;-76
2024/02/24 02:18:02;;;;;;;7.15;3.83;;;;;;;;;;4993888;28;20117;-76
2024/02/24 02:20:27;;;;;;;7.00;3.70;;;;;;;;;;4993467;28;20070;-76
2024/02/24 02:22:52;;;;;;;7.15;3.83;;;;;;;;;;4993117;28;20104;-75
2024/02/24 02:25:17;;;;;;;8.55;4.22;;;;;;;;;;4993541;28;20026;-76
2024/02/24 02:27:42;;;;;;;9.98;4.45;;;;;;;;;;4990645;28;20136;-75
2024/02/24 02:30:08;;;;;;;7.55;4.43;;;;;;;;;;4992639;28;20034;-76
2024/02/24 02:32:33;;;;;;;10.20;5.30;;;;;;;;;;4993240;28;20022;-76
2024/02/24 02:34:58;;;;;;;6.90;4.28;;;;;;;;;;4993338;28;20058;-76
2024/02/24 02:37:23;;;;;;;9.63;4.00;;;;;;;;;;4993516;28;20038;-76
2024/02/24 02:39:48;;;;;;;6.90;4.10;;;;;;;;;;4997427;28;20046;-76
2024/02/24 02:42:13;;;;;;;8.38;3.58;;;;;;;;;;4992962;28;20419;-75
2024/02/24 02:44:39;;;;;;;8.93;4.53;;;;;;;;;;4992586;28;20049;-76
2024/02/24 02:47:04;;;;;;;8.75;4.07;;;;;;;;;;4993189;28;20034;-76
2024/02/24 02:49:29;;;;;;;7.07;3.53;;;;;;;;;;4994586;28;20057;-75
2024/02/24 02:51:55;;;;;;;7.20;4.10;;;;;;;;;;4992768;28;20104;-75
2024/02/24 02:54:20;;;;;;;7.63;3.70;;;;;;;;;;4992977;28;20026;-76
2024/02/24 02:56:45;;;;;;;8.85;3.95;;;;;;;;;;4993047;28;20057;-76
2024/02/24 02:59:10;;;;;;;8.13;4.38;;;;;;;;;;4992736;28;20117;-75
2024/02/24 03:01:35;;;;;;;6.03;3.25;;;;;;;;;;4996750;28;20038;-75
2024/02/24 03:04:01;;;;;;;7.68;3.50;;;;;;;;;;4992683;28;20022;-76
2024/02/24 03:06:26;;;;;;;6.88;3.67;;;;;;;;;;4992899;28;20100;-76
2024/02/24 03:08:51;;;;;;;6.65;3.47;;;;;;;;;;4992769;28;20034;-75
2024/02/24 03:11:17;;;;;;;6.05;3.67;;;;;;;;;;4993958;28;20030;-76
2024/02/24 03:13:42;;;;;;;9.15;3.60;;;;;;;;;;4991146;28;20026;-76
2024/02/24 03:16:07;;;;;;;7.57;3.63;;;;;;;;;;4992793;28;20034;-76
2024/02/24 03:18:33;;;;;;;6.93;3.60;;;;;;;;;;4992727;28;20030;-76
2024/02/24 03:20:58;;;;;;;9.10;3.65;;;;;;;;;;4987063;28;20038;-76
2024/02/24 03:23:23;;;;;;;6.70;3.65;;;;;;;;;;4992756;28;20023;-76
2024/02/24 03:25:48;;;;;;;10.30;4.72;;;;;;;;;;4992232;28;20030;-76
2024/02/24 03:28:14;;;;;;;7.03;3.75;;;;;;;;;;4992696;28;20041;-76
2024/02/24 03:30:39;;;;;;;6.57;3.50;;;;;;;;;;4992707;28;20108;-76
2024/02/24 03:33:05;;;;;;;6.15;3.28;;;;;;;;;;4991801;28;20070;-76
2024/02/24 03:35:31;;;;;;;7.47;3.55;;;;;;;;;;4994301;28;20030;-75
2024/02/24 03:37:56;;;;;;;7.15;4.35;;;;;;;;;;4993201;28;20567;-76
2024/02/24 03:40:21;;;;;;;6.70;3.47;;;;;;;;;;4991729;28;20037;-76
2024/02/24 03:42:46;;;;;;;7.00;3.45;;;;;;;;;;4991047;28;20030;-76
2024/02/24 03:45:12;;;;;;;6.53;3.40;;;;;;;;;;4991263;28;20104;-75
2024/02/24 03:47:37;;;;;;;7.43;3.90;;;;;;;;;;4991887;28;20081;-76
2024/02/24 03:50:02;;;;;;;10.54;4.50;;;;;;;;;;4996319;28;20060;-76
2024/02/24 03:52:27;;;;;;;6.40;3.47;;;;;;;;;;4991649;28;20026;-76
2024/02/24 03:54:52;;;;;;;7.97;3.40;;;;;;;;;;4992934;28;20089;-76
2024/02/24 03:57:17;;;;;;;7.14;4.02;;;;;;;;;;4991288;28;20507;-75
2024/02/24 03:59:43;;;;;;;8.27;4.70;;;;;;;;;;4992253;28;20037;-76
2024/02/24 04:02:08;;;;;;;6.72;3.75;;;;;;;;;;4991612;28;20183;-76
2024/02/24 04:04:33;;;;;;;9.60;4.22;;;;;;;;;;4991649;28;20030;-76
2024/02/24 04:06:58;;;;;;;7.43;3.80;;;;;;;;;;4990288;28;20065;-75
2024/02/24 04:09:23;;;;;;;6.20;3.35;;;;;;;;;;4991715;28;20068;-75
2024/02/24 04:11:50;;;;;;;6.55;3.63;;;;;;;;;;4991142;28;20011;-76
2024/02/24 04:14:15;;;;;;;7.90;4.43;;;;;;;;;;4990279;28;20038;-75
2024/02/24 04:16:41;;;;;;;10.95;5.15;;;;;;;;;;4991424;28;20039;-75
2024/02/24 04:19:06;;;;;;;9.15;4.85;;;;;;;;;;4991486;28;20523;-76
2024/02/24 04:21:31;;;;;;;10.63;4.65;;;;;;;;;;4991044;28;20034;-76
2024/02/24 04:23:56;;;;;;;8.15;3.78;;;;;;;;;;4989541;28;20065;-75
2024/02/24 04:26:21;;;;;;;8.50;4.85;;;;;;;;;;4991456;28;20045;-74
2024/02/24 04:28:46;;;;;;;9.70;4.68;;;;;;;;;;4991296;28;20057;-76
2024/02/24 04:31:12;;;;;;;9.93;4.88;;;;;;;;;;4998201;28;20041;-75
2024/02/24 04:33:37;;;;;;;7.03;4.07;;;;;;;;;;4991036;28;20033;-75
2024/02/24 04:36:03;;;;;;;7.93;4.13;;;;;;;;;;4991233;28;20030;-76
2024/02/24 04:38:29;;;;;;;9.57;4.25;;;;;;;;;;4990010;28;20030;-76
2024/02/24 04:40:54;;;;;;;7.25;3.67;;;;;;;;;;4991101;28;20042;-75
2024/02/24 04:43:19;;;;;;;8.80;4.10;;;;;;;;;;4991152;28;20064;-75
2024/02/24 04:45:45;;;;;;;7.03;3.75;;;;;;;;;;4990742;28;20054;-75
2024/02/24 04:48:10;;;;;;;7.43;3.90;;;;;;;;;;4991147;28;20516;-75
2024/02/24 04:50:35;;;;;;;9.70;4.10;;;;;;;;;;4990296;28;20058;-76
2024/02/24 04:53:00;;;;;;;8.68;4.32;;;;;;;;;;4989793;28;20065;-75
2024/02/24 04:55:25;;;;;;;9.68;4.50;;;;;;;;;;4990808;28;20036;-76
2024/02/24 04:57:50;;;;;;;9.05;5.20;;;;;;;;;;4992351;28;20030;-76
2024/02/24 05:00:16;;;;;;;9.80;4.10;;;;;;;;;;4994460;28;20145;-76
2024/02/24 05:02:41;;;;;;;7.82;4.00;;;;;;;;;;4990406;28;20026;-75
2024/02/24 05:05:06;;;;;;;7.30;3.90;;;;;;;;;;4990510;28;20544;-75
2024/02/24 05:07:32;;;;;;;7.10;3.78;;;;;;;;;;4990769;28;20088;-74
2024/02/24 05:09:57;;;;;;;7.90;3.60;;;;;;;;;;4990608;28;20038;-74
2024/02/24 05:12:22;;;;;;;7.07;3.92;;;;;;;;;;4989157;28;20101;-75
2024/02/24 05:14:48;;;;;;;6.85;3.60;;;;;;;;;;4989485;28;20080;-74
2024/02/24 05:17:14;;;;;;;9.00;4.60;;;;;;;;;;4990762;28;20049;-75
2024/02/24 05:19:39;;;;;;;9.57;4.07;;;;;;;;;;4990431;28;20505;-74
2024/02/24 05:22:05;;;;;;;10.60;4.05;;;;;;;;;;4990325;28;20037;-74
2024/02/24 05:24:30;;;;;;;7.40;3.80;;;;;;;;;;4990535;28;20026;-74
2024/02/24 05:26:55;;;;;;;10.02;4.00;;;;;;;;;;4990428;28;20062;-74
2024/02/24 05:29:20;;;;;;;7.30;3.83;;;;;;;;;;4990402;28;20035;-74
2024/02/24 05:31:45;;;;;;;7.90;3.67;;;;;;;;;;4991678;28;20109;-75
2024/02/24 05:34:10;;;;;;;8.15;3.67;;;;;;;;;;4990483;28;20106;-74
2024/02/24 05:36:36;;;;;;;7.85;3.15;;;;;;;;;;4990605;28;20034;-73
2024/02/24 05:39:03;;;;;;;9.35;3.67;;;;;;;;;;4990464;28;20121;-75
2024/02/24 05:41:28;;;;;;;6.38;3.58;;;;;;;;;;4991406;28;20042;-74
2024/02/24 05:43:53;;;;;;;8.05;4.05;;;;;;;;;;4990017;28;20034;-75
2024/02/24 05:46:19;;;;;;;6.90;3.50;;;;;;;;;;4990975;28;20038;-74
2024/02/24 05:48:45;;;;;;;9.35;3.90;;;;;;;;;;4990383;28;20040;-73
2024/02/24 05:51:10;;;;;;;7.82;3.85;;;;;;;;;;4991647;28;20038;-75
2024/02/24 05:53:38;;;;;;;8.73;3.78;;;;;;;;;;4990297;28;20026;-74
2024/02/24 05:56:04;;;;;;;6.60;3.50;;;;;;;;;;4990523;28;20097;-74
2024/02/24 05:58:29;;;;;;;7.68;4.25;;;;;;;;;;4990217;28;20042;-74
2024/02/24 06:00:55;;;;;;;9.13;3.97;;;;;;;;;;4990223;28;20085;-74
2024/02/24 06:03:20;;;;;;;6.57;3.65;;;;;;;;;;4990464;28;20447;-73
2024/02/24 06:05:45;;;;;;;7.65;4.40;;;;;;;;;;4989928;28;20030;-74
2024/02/24 06:08:11;;;;;;;8.75;3.78;;;;;;;;;;4990310;28;20487;-75
2024/02/24 06:10:37;;;;;;;6.68;3.80;;;;;;;;;;4991284;28;20050;-75
2024/02/24 06:13:04;;;;;;;9.00;4.80;;;;;;;;;;4988321;28;20487;-74
2024/02/24 06:15:29;;;;;;;7.50;3.60;;;;;;;;;;4990078;28;20034;-75
2024/02/24 06:17:55;;;;;;;8.00;3.50;;;;;;;;;;4990114;28;20388;-74
2024/02/24 06:20:20;;;;;;;6.50;3.50;;;;;;;;;;4993765;28;20030;-75
2024/02/24 06:22:45;;;;;;;6.78;3.60;;;;;;;;;;4993212;28;20462;-75
2024/02/24 06:25:10;;;;;;;9.45;4.65;;;;;;;;;;4993645;28;20038;-74
2024/02/24 06:27:35;;;;;;;7.53;4.43;;;;;;;;;;4993606;28;20204;-75
2024/02/24 06:30:01;;;;;;;6.63;3.97;;;;;;;;;;4992268;28;20045;-74
2024/02/24 06:32:26;;;;;;;8.55;4.38;;;;;;;;;;4991999;28;20065;-74
2024/02/24 06:34:51;;;;;;;10.65;4.20;;;;;;;;;;4993220;28;20034;-74
2024/02/24 06:37:16;;;;;;;6.78;3.88;;;;;;;;;;4993652;28;20038;-74
2024/02/24 06:39:41;;;;;;;6.32;3.25;;;;;;;;;;4993068;28;20113;-75
2024/02/24 06:42:06;;;;;;;9.10;3.95;;;;;;;;;;4993600;28;20030;-74
2024/02/24 06:44:32;;;;;;;9.80;4.65;;;;;;;;;;4993159;28;20038;-74
2024/02/24 06:46:57;;;;;;;7.65;3.88;;;;;;;;;;4993176;28;20062;-74
2024/02/24 06:49:22;;;;;;;8.98;3.88;;;;;;;;;;4993158;28;20038;-75
2024/02/24 06:51:47;;;;;;;8.68;4.03;;;;;;;;;;4994233;28;20455;-74
2024/02/24 06:54:12;;;;;;;7.93;4.28;;;;;;;;;;4993096;28;20093;-75
2024/02/24 06:56:37;;;;;;;7.15;3.88;;;;;;;;;;4993494;28;20038;-73
2024/02/24 06:59:05;;;;;;;6.45;3.40;;;;;;;;;;4993557;28;20070;-74
2024/02/24 07:01:32;;;;;;;7.68;3.90;;;;;;;;;;4993961;28;20035;-74
2024/02/24 07:03:57;;;;;;;8.70;4.53;;;;;;;;;;4992684;28;20038;-74
2024/02/24 07:06:22;;;;;;;8.85;3.72;;;;;;;;;;4992865;28;20061;-74
2024/02/24 07:08:47;;;;;;;9.05;4.05;;;;;;;;;;4996652;28;20081;-74
2024/02/24 07:11:13;;;;;;;10.73;5.07;;;;;;;;;;4991633;28;20041;-74
2024/02/24 07:13:38;;;;;;;8.55;4.43;;;;;;;;;;4992669;28;20038;-73
2024/02/24 07:16:03;;;;;;;8.27;4.40;;;;;;;;;;4989234;28;20026;-74
2024/02/24 07:18:29;;;;;;;9.30;4.82;;;;;;;;;;4992882;28;20084;-75
2024/02/24 07:20:54;;;;;;;9.10;4.15;;;;;;;;;;4992646;28;20582;-74
2024/02/24 07:23:19;;;;;;;8.00;4.53;;;;;;;;;;4992757;28;20026;-74
2024/02/24 07:25:44;;;;;;;8.50;4.15;;;;;;;;;;4992311;28;20080;-75
2024/02/24 07:28:09;;;;;;;7.10;3.95;;;;;;;;;;4992430;28;20077;-74
2024/02/24 07:30:34;;;;;;;6.75;3.97;;;;;;;;;;4993452;28;20028;-74
2024/02/24 07:33:00;;;;;;;8.73;3.70;;;;;;;;;;4991252;28;20407;-74
2024/02/24 07:35:25;;;;;;;10.52;3.90;;;;;;;;;;4992333;28;20014;-74
2024/02/24 07:37:51;;;;;;;5.80;2.75;;;;;;;;;;4993389;28;20557;-75
2024/02/24 07:40:16;;;;;;;7.50;3.17;;;;;;;;;;4994628;28;20034;-75
2024/02/24 07:42:41;;;;;;;5.80;3.10;;;;;;;;;;4991755;28;20041;-74
2024/02/24 07:45:07;;;;;;;4.97;2.50;;;;;;;;;;4992071;28;20451;-75
2024/02/24 07:47:32;;;;;;;6.88;3.30;;;;;;;;;;4992285;28;20031;-75
2024/02/24 07:49:57;;;;;;;6.95;3.25;;;;;;;;;;4992373;28;20081;-75
2024/02/24 07:52:22;;;;;;;7.00;3.28;;;;;;;;;;4993533;28;20022;-75
2024/02/24 07:54:47;;;;;;;6.70;3.33;;;;;;;;;;4991708;28;20510;-74
2024/02/24 07:57:12;;;;;;;6.85;3.00;;;;;;;;;;4993321;28;20119;-75
2024/02/24 07:59:38;;;;;;;7.60;2.72;;;;;;;;;;4991718;28;20034;-75
2024/02/24 08:02:03;;;;;;;7.05;2.58;;;;;;;;;;4992006;28;20030;-75
2024/02/24 08:04:28;;;;;;;6.20;2.50;;;;;;;;;;4991712;28;20034;-75
2024/02/24 08:06:53;;;;;;;6.13;2.22;;;;;;;;;;4991549;28;20058;-75
2024/02/24 08:09:18;;;;;;;6.53;2.42;;;;;;;;;;4991663;28;20030;-75
2024/02/24 08:11:44;;;;;;;5.90;2.25;;;;;;;;;;4992742;28;20027;-74
2024/02/24 08:14:09;;;;;;;4.72;1.50;;;;;;;;;;4991483;28;20097;-74
2024/02/24 08:16:34;;;;;;;5.95;1.65;;;;;;;;;;4991707;28;20101;-75
2024/02/24 08:19:01;;;;;;;3.33;1.10;;;;;;;;;;4991556;28;20057;-74
2024/02/24 08:21:27;;;;;;;2.75;0.90;;;;;;;;;;4993595;28;20030;-74
2024/02/24 08:23:52;;;;;;;10.38;1.23;;;;;;;;;;4991143;28;20042;-75
2024/02/24 08:26:17;;;;;;;4.63;1.05;;;;;;;;;;4991429;28;20042;-75
2024/02/24 08:28:43;;;;;;;3.80;1.08;;;;;;;;;;4991224;28;20387;-75
2024/02/24 08:31:08;;;;;;;2.97;0.82;;;;;;;;;;4994321;28;20023;-75
2024/02/24 08:33:33;;;;;;;4.07;0.80;;;;;;;;;;4991180;28;20018;-74
2024/02/24 08:35:58;;;;;;;3.92;1.00;;;;;;;;;;4991152;28;20034;-75
2024/02/24 08:38:23;;;;;;;2.40;0.80;;;;;;;;;;4991359;28;20065;-74
2024/02/24 08:40:49;;;;;;;2.47;0.95;;;;;;;;;;4988700;28;20023;-74
2024/02/24 08:43:14;;;;;;;3.80;0.98;;;;;;;;;;4990855;28;20053;-75
2024/02/24 08:45:39;;;;;;;5.82;1.00;;;;;;;;;;4991041;28;20491;-75
2024/02/24 08:48:04;;;;;;;4.05;0.80;;;;;;;;;;4991033;28;20045;-74
2024/02/24 08:50:30;;;;;;;3.05;1.25;;;;;;;;;;4992373;28;20041;-75
2024/02/24 08:52:55;;;;;;;2.72;1.00;;;;;;;;;;4990339;28;20026;-75
2024/02/24 08:55:20;;;;;;;3.35;0.90;;;;;;;;;;4990852;28;20391;-74
2024/02/24 08:57:45;;;;;;;2.55;1.10;;;;;;;;;;4992127;28;20030;-75
2024/02/24 09:00:12;;;;;;;3.83;1.42;;;;;;;;;;4990787;28;20064;-74
2024/02/24 09:02:37;;;;;;;5.93;1.30;;;;;;;;;;4990067;28;20379;-75
2024/02/24 09:05:03;;;;;;;3.45;1.00;;;;;;;;;;4990199;28;20105;-75
2024/02/24 09:07:28;;;;;;;3.08;1.15;;;;;;;;;;4990984;28;20026;-75
2024/02/24 09:09:53;;;;;;;3.55;1.27;;;;;;;;;;4992110;28;20045;-75
2024/02/24 09:12:18;;;;;;;3.63;1.17;;;;;;;;;;4993772;28;20536;-75
2024/02/24 09:14:43;;;;;;;2.55;0.95;;;;;;;;;;4990474;28;20030;-75
2024/02/24 09:17:09;;;;;;;2.67;1.00;;;;;;;;;;4990790;28;20186;-75
2024/02/24 09:19:34;;;;;;;3.50;1.08;;;;;;;;;;4990662;28;20030;-75
2024/02/24 09:21:59;;;;;;;2.28;0.90;;;;;;;;;;4990502;28;20042;-75
2024/02/24 09:24:24;;;;;;;5.25;1.25;;;;;;;;;;4990248;28;20034;-74
2024/02/24 09:26:50;;;;;;;5.78;1.17;;;;;;;;;;4990474;28;20077;-75
2024/02/24 09:29:15;;;;;;;4.38;1.30;;;;;;;;;;4991738;28;20034;-74
2024/02/24 09:31:40;;;;;;;2.55;0.90;;;;;;;;;;4991631;28;20157;-75
2024/02/24 09:34:05;;;;;;;3.00;0.98;;;;;;;;;;4990286;28;20415;-75
2024/02/24 09:36:31;;;;;;;4.22;1.08;;;;;;;;;;4990644;28;20038;-75
2024/02/24 09:38:56;;;;;;;2.63;0.73;;;;;;;;;;4990531;28;20042;-74
2024/02/24 09:41:21;;;;;;;3.33;1.00;;;;;;;;;;4992348;28;20074;-74
2024/02/24 09:43:46;;;;;;;3.65;1.05;;;;;;;;;;4987613;28;20027;-75
2024/02/24 09:46:12;;;;;;;4.25;0.80;;;;;;;;;;4990533;28;20497;-74
2024/02/24 09:48:38;;;;;;;3.20;0.70;;;;;;;;;;4990554;28;20527;-75
2024/02/24 09:51:04;;;;;;;1.98;0.80;;;;;;;;;;4993027;28;20030;-75
2024/02/24 09:53:29;;;;;;;1.83;0.70;;;;;;;;;;4990478;28;20391;-74
2024/02/24 09:55:55;;;;;;;3.42;0.73;;;;;;;;;;4992341;28;20065;-75
2024/02/24 09:58:20;;;;;;;2.70;0.60;;;;;;;;;;4994170;28;20479;-75
2024/02/24 10:00:49;;;;;;;2.78;0.80;;;;;;;;;;4993892;28;20034;-75
2024/02/24 10:03:15;;;;;;;3.75;0.95;;;;;;;;;;4996660;28;20410;-75
2024/02/24 10:05:41;;;;;;;2.85;0.60;;;;;;;;;;4993981;28;20109;-75
2024/02/24 10:08:06;;;;;;;3.30;0.75;;;;;;;;;;4993873;28;20030;-75
2024/02/24 10:10:31;;;;;;;3.10;0.85;;;;;;;;;;4994942;28;20033;-73
2024/02/24 10:12:57;;;;;;;1.67;0.70;;;;;;;;;;4993926;28;20066;-75
2024/02/24 10:15:23;;;;;;;2.97;0.73;;;;;;;;;;4993872;28;20058;-75
2024/02/24 10:17:49;;;;;;;4.20;0.70;;;;;;;;;;4993737;28;20501;-75
2024/02/24 10:20:14;;;;;;;4.93;1.25;;;;;;;;;;4994141;28;20034;-74
2024/02/24 10:22:39;;;;;;;2.85;0.60;;;;;;;;;;4995234;28;20031;-75
2024/02/24 10:25:05;;;;;;;1.42;0.65;;;;;;;;;;4992126;28;20104;-75
2024/02/24 10:27:30;;;;;;;2.33;0.60;;;;;;;;;;4993621;28;20030;-75
2024/02/24 10:29:55;;;;;;;2.17;0.55;;;;;;;;;;4993316;28;20034;-75
2024/02/24 10:32:21;;;;;;;1.65;0.65;;;;;;;;;;4996650;28;20018;-75
2024/02/24 10:34:46;;;;;;;2.13;0.60;;;;;;;;;;4991005;28;20545;-75
2024/02/24 10:37:12;;;;;;;1.65;0.60;;;;;;;;;;4991391;28;20491;-75
2024/02/24 10:39:39;;;;;;;1.65;0.55;;;;;;;;;;4993469;28;20087;-75
2024/02/24 10:42:06;;;;;;;2.67;0.88;;;;;;;;;;4993324;28;20041;-74
2024/02/24 10:44:32;;;;;;;2.08;0.68;;;;;;;;;;4992062;28;20034;-75
2024/02/24 10:46:58;;;;;;;2.67;0.60;;;;;;;;;;4993074;28;20038;-75
2024/02/24 10:49:23;;;;;;;1.77;0.70;;;;;;;;;;4993273;28;20426;-75
2024/02/24 10:51:49;;;;;;;4.65;0.70;;;;;;;;;;4993985;28;20027;-75
2024/02/24 10:54:16;;;;;;;1.92;0.57;;;;;;;;;;5001601;28;20029;-75
2024/02/24 10:56:42;;;;;;;1.35;0.50;;;;;;;;;;4989764;28;20030;-75
2024/02/24 10:59:08;;;;;;;4.70;0.80;;;;;;;;;;4992743;28;20046;-75
2024/02/24 11:01:43;;;;;;;2.53;0.75;;;;;;;;;;4995042;28;20027;-75
2024/02/24 11:04:10;;;;;;;3.53;0.70;;;;;;;;;;4989888;28;20085;-74
2024/02/24 11:06:45;;;;;;;2.47;0.60;;;;;;;;;;4992601;28;20498;-75
2024/02/24 11:09:15;;;;;;;2.22;0.80;;;;;;;;;;4994008;28;20030;-74
2024/02/24 11:11:40;;;;;;;1.58;0.60;;;;;;;;;;4992292;28;20026;-75
2024/02/24 11:14:06;;;;;;;4.25;0.80;;;;;;;;;;4992607;28;20109;-75
2024/02/24 11:16:35;;;;;;;3.05;0.70;;;;;;;;;;4992816;28;20022;-75
2024/02/24 11:19:00;;;;;;;2.10;0.70;;;;;;;;;;4992627;28;20050;-75
2024/02/24 11:21:45;;;;;;;2.43;0.70;;;;;;;;;;4992326;28;20057;-75
2024/02/24 11:24:17;;;;;;;2.30;0.35;;;;;;;;;;4992742;28;20305;-75
2024/02/24 11:26:43;;;;;;;1.88;0.57;;;;;;;;;;4989615;28;20454;-74
2024/02/24 11:29:08;;;;;;;3.45;0.77;;;;;;;;;;4989641;28;20034;-75
2024/02/24 11:31:39;;;;;;;1.63;0.55;;;;;;;;;;4993410;28;20060;-75
2024/02/24 11:34:08;;;;;;;1.57;0.40;;;;;;;;;;4992009;28;20554;-74
2024/02/24 11:36:38;;;;;;;4.38;0.80;;;;;;;;;;4992565;28;20035;-75
2024/02/24 11:39:03;;;;;;;1.00;0.40;;;;;;;;;;4992278;28;20046;-75
2024/02/24 11:41:29;;;;;;;2.95;0.70;;;;;;;;;;4994238;28;20398;-75
2024/02/24 11:43:54;;;;;;;2.42;0.80;;;;;;;;;;4992004;28;20041;-75
2024/02/24 11:46:19;;;;;;;1.77;0.57;;;;;;;;;;4992297;28;20031;-75
2024/02/24 11:48:45;;;;;;;2.08;0.40;;;;;;;;;;4992025;28;20034;-75
2024/02/24 11:51:10;;;;;;;2.57;0.83;;;;;;;;;;4994665;28;20026;-75
2024/02/24 11:53:35;;;;;;;2.63;0.77;;;;;;;;;;4991963;28;20269;-75
2024/02/24 11:56:01;;;;;;;2.97;0.85;;;;;;;;;;4991929;28;20027;-75
2024/02/24 11:58:26;;;;;;;2.75;0.63;;;;;;;;;;4992127;28;20384;-75
2024/02/24 12:00:52;;;;;;;3.20;0.75;;;;;;;;;;4991600;28;20042;-75
2024/02/24 12:03:18;;;;;;;3.80;0.60;;;;;;;;;;4992128;28;20383;-75
2024/02/24 12:05:44;;;;;;;3.28;0.73;;;;;;;;;;4992660;28;20045;-75
2024/02/24 12:08:10;;;;;;;1.65;0.50;;;;;;;;;;4988217;28;20035;-74
2024/02/24 12:10:37;;;;;;;2.78;0.82;;;;;;;;;;4992525;28;20101;-75
2024/02/24 12:13:06;;;;;;;1.95;0.50;;;;;;;;;;4991571;28;20069;-75
2024/02/24 12:15:35;;;;;;;2.10;0.38;;;;;;;;;;4991467;28;20085;-74
2024/02/24 12:18:01;;;;;;;1.67;0.57;;;;;;;;;;4990923;28;20128;-75
2024/02/24 12:20:26;;;;;;;1.40;0.60;;;;;;;;;;4991601;28;20535;-75
2024/02/24 12:22:51;;;;;;;3.95;0.60;;;;;;;;;;4992915;28;20033;-74
2024/02/24 12:25:16;;;;;;;3.50;1.00;;;;;;;;;;4991398;28;20026;-75
2024/02/24 12:27:42;;;;;;;2.65;0.68;;;;;;;;;;4991532;28;20038;-75
2024/02/24 12:30:07;;;;;;;2.50;0.57;;;;;;;;;;4989780;28;20110;-75
2024/02/24 12:32:33;;;;;;;2.88;1.48;;;;;;;;;;4993511;28;20109;-75
2024/02/24 12:35:02;;;;;;;2.90;0.70;;;;;;;;;;4991062;28;20026;-75
2024/02/24 12:37:32;;;;;;;2.15;0.65;;;;;;;;;;4991453;28;20399;-75
2024/02/24 12:39:57;;;;;;;2.58;0.70;;;;;;;;;;4990951;28;20057;-74
2024/02/24 12:42:24;;;;;;;1.98;0.80;;;;;;;;;;4991099;28;20049;-75
2024/02/24 12:44:49;;;;;;;2.53;1.17;;;;;;;;;;4990840;28;20376;-75
2024/02/24 12:47:14;;;;;;;3.23;1.07;;;;;;;;;;4991586;28;20041;-75
2024/02/24 12:49:39;;;;;;;2.85;0.90;;;;;;;;;;4990949;28;20281;-74
2024/02/24 12:52:04;;;;;;;3.42;0.90;;;;;;;;;;4991719;28;20037;-75
2024/02/24 12:54:30;;;;;;;3.40;1.00;;;;;;;;;;4990909;28;20471;-75
2024/02/24 12:56:55;;;;;;;3.53;1.30;;;;;;;;;;4990939;28;20153;-75
2024/02/24 12:59:22;;;;;;;3.67;1.50;;;;;;;;;;4990601;28;20783;-75
2024/02/24 13:01:47;;;;;;;2.35;0.82;;;;;;;;;;4992579;28;20034;-74
2024/02/24 13:04:12;;;;;;;2.80;0.80;;;;;;;;;;4991002;28;20386;-75
2024/02/24 13:06:38;;;;;;;2.28;0.60;;;;;;;;;;4990897;28;20036;-75
2024/02/24 13:09:03;;;;;;;2.25;0.70;;;;;;;;;;4989347;28;20052;-75
2024/02/24 13:11:28;;;;;;;2.17;0.90;;;;;;;;;;4990317;28;20022;-75
2024/02/24 13:13:53;;;;;;;1.70;0.45;;;;;;;;;;4990424;28;20828;-75
2024/02/24 13:16:19;;;;;;;1.73;0.43;;;;;;;;;;4997113;28;20049;-75
2024/02/24 13:18:44;;;;;;;2.30;0.70;;;;;;;;;;4990724;28;20728;-75
2024/02/24 13:21:09;;;;;;;1.43;0.50;;;;;;;;;;4990218;28;20031;-75
2024/02/24 13:23:34;;;;;;;0.85;0.32;;;;;;;;;;4990639;28;20280;-75
2024/02/24 13:25:59;;;;;;;1.80;0.57;;;;;;;;;;4990528;28;20081;-75
2024/02/24 13:28:24;;;;;;;2.08;0.55;;;;;;;;;;4990647;28;20084;-75
2024/02/24 13:30:50;;;;;;;2.25;0.90;;;;;;;;;;4995069;28;20015;-75
2024/02/24 13:33:15;;;;;;;1.70;0.60;;;;;;;;;;4994843;28;20605;-75
2024/02/24 13:35:40;;;;;;;0.88;0.38;;;;;;;;;;4995744;28;20285;-75
2024/02/24 13:38:05;;;;;;;0.90;0.30;;;;;;;;;;4994557;28;20034;-75
2024/02/24 13:40:31;;;;;;;1.15;0.32;;;;;;;;;;4994489;28;20030;-75
2024/02/24 13:42:56;;;;;;;1.55;0.40;;;;;;;;;;4995801;28;20062;-75
2024/02/24 13:45:21;;;;;;;0.93;0.40;;;;;;;;;;4994235;28;20562;-75
2024/02/24 13:47:47;;;;;;;1.88;0.73;;;;;;;;;;4994196;28;20311;-75
2024/02/24 13:50:12;;;;;;;2.15;0.50;;;;;;;;;;4994282;28;20030;-74
2024/02/24 13:52:38;;;;;;;1.65;0.55;;;;;;;;;;4995613;28;20092;-75
2024/02/24 13:55:03;;;;;;;1.42;0.75;;;;;;;;;;4993939;28;20113;-75
2024/02/24 13:57:28;;;;;;;2.00;0.60;;;;;;;;;;4994485;28;20038;-74
2024/02/24 13:59:55;;;;;;;1.30;0.60;;;;;;;;;;4993813;28;20046;-75
2024/02/24 14:02:22;;;;;;;1.45;0.60;;;;;;;;;;4994064;28;20347;-75
2024/02/24 14:04:47;;;;;;;1.10;0.47;;;;;;;;;;4993032;28;20105;-75
2024/02/24 14:07:13;;;;;;;3.83;0.70;;;;;;;;;;4995556;28;20105;-74
2024/02/24 14:09:38;;;;;;;3.20;0.65;;;;;;;;;;4993966;28;20265;-75
2024/02/24 14:12:04;;;;;;;2.13;0.60;;;;;;;;;;4994963;28;20537;-75
2024/02/24 14:14:29;;;;;;;3.40;0.82;;;;;;;;;;4993751;28;20551;-75
2024/02/24 14:16:54;;;;;;;2.65;0.80;;;;;;;;;;4992632;28;20042;-75
2024/02/24 14:19:19;;;;;;;2.83;1.08;;;;;;;;;;4993773;28;20487;-75
2024/02/24 14:21:44;;;;;;;2.73;0.83;;;;;;;;;;4994700;28;20483;-74
2024/02/24 14:24:10;;;;;;;2.20;0.90;;;;;;;;;;4993230;28;20360;-75
2024/02/24 14:26:35;;;;;;;2.17;0.70;;;;;;;;;;4991054;28;20030;-75
2024/02/24 14:29:00;;;;;;;1.50;0.40;;;;;;;;;;4993688;28;20288;-75
2024/02/24 14:31:25;;;;;;;1.48;0.40;;;;;;;;;;5006949;28;20023;-74
2024/02/24 14:33:52;;;;;;;1.70;0.70;;;;;;;;;;4993340;28;20030;-76